This is the latest recevied weather packets stored in our database for station/object KY4JDC. If no packets are shown the sender has not sent any weather packets the latest 1 day(s).
| Time | Temp. | Humidity | Pressure | Rain* | Wind** | Luminosity | Snow |
|---|---|---|---|---|---|---|---|
| 1778077028 | 11.11° C | 82% | 1016.4 hPa | 0 mm | - | 270 W/m² | - |
| 1778076726 | 11.11° C | 82% | 1016.5 hPa | 0 mm | - | 269 W/m² | - |
| 1778076120 | 10.56° C | 83% | 1016.2 hPa | 0 mm | - | 195 W/m² | - |
| 1778075817 | 10.56° C | 83% | 1016.1 hPa | 0 mm | - | 176 W/m² | - |
| 1778075210 | 10.56° C | 87% | 1016 hPa | 0 mm | - | 220 W/m² | - |
| 1778074906 | 10° C | 86% | 1015.7 hPa | 0 mm | - | 183 W/m² | - |
| 1778074300 | 10° C | 89% | 1015.5 hPa | 0 mm | - | 146 W/m² | - |
| 1778073694 | 9.44° C | 90% | 1015.3 hPa | 0 mm | - | 97 W/m² | - |
| 1778069155 | 7.78° C | 95% | 1015 hPa | 0 mm | - | 49 W/m² | - |
| 1778068248 | 7.78° C | 95% | 1014.5 hPa | 0 mm | - | 21 W/m² | - |
| 1778067341 | 7.78° C | 95% | 1014.7 hPa | 0 mm | - | 15 W/m² | - |
| 1778067038 | 7.78° C | 95% | 1014.6 hPa | 0 mm | - | 10 W/m² | - |
| 1778066130 | 7.78° C | 96% | 1014.7 hPa | 0 mm | - | 3 W/m² | - |
| 1778064615 | 7.78° C | 95% | 1013.8 hPa | 0 mm | - | 1 W/m² | - |
| 1778063404 | 7.78° C | 95% | 1013.8 hPa | 0 mm | - | 0 W/m² | - |
| 1778062193 | 7.78° C | 94% | 1013.6 hPa | 0 mm | - | 0 W/m² | - |
| 1778060983 | 7.78° C | 95% | 1014.2 hPa | 0 mm | - | 0 W/m² | - |
| 1778060682 | 7.78° C | 94% | 1013.6 hPa | 0 mm | - | 0 W/m² | - |
| 1778060379 | 7.78° C | 94% | 1013.6 hPa | 0 mm | - | 0 W/m² | - |
| 1778060077 | 7.78° C | 94% | 1013.5 hPa | 0 mm | - | 0 W/m² | - |
| 1778058867 | 8.33° C | 95% | 1013.4 hPa | 1.27 mm | - | 0 W/m² | - |
| 1778057351 | 8.33° C | 95% | 1012.7 hPa | 3.05 mm | - | 0 W/m² | - |
| 1778057048 | 8.33° C | 95% | 1012.7 hPa | 0 mm | - | 0 W/m² | - |
| 1778056744 | 8.89° C | 95% | 1012.6 hPa | 0 mm | - | 0 W/m² | - |
| 1778055835 | 8.89° C | 95% | 1012.3 hPa | 0 mm | - | 0 W/m² | - |
* Rain latest hour (hover to see other rain measurements)
** Current wind speed in m/s (hover to see current wind gust speed)